sensor_id;sensor_type;location;lat;lon;timestamp;temperature;humidity
12708;DHT22;6418;50.824;4.718;2022-10-15T00:00:34;13.80;99.90
12708;DHT22;6418;50.824;4.718;2022-10-15T00:03:01;13.80;99.90
12708;DHT22;6418;50.824;4.718;2022-10-15T00:05:30;13.80;99.90
12708;DHT22;6418;50.824;4.718;2022-10-15T00:07:57;13.80;99.90
12708;DHT22;6418;50.824;4.718;2022-10-15T00:10:24;13.80;99.90
12708;DHT22;6418;50.824;4.718;2022-10-15T00:12:51;13.90;99.90
12708;DHT22;6418;50.824;4.718;2022-10-15T00:15:17;13.80;99.90
12708;DHT22;6418;50.824;4.718;2022-10-15T00:17:44;13.80;99.90
12708;DHT22;6418;50.824;4.718;2022-10-15T00:20:12;13.80;99.90
12708;DHT22;6418;50.824;4.718;2022-10-15T00:22:40;13.80;99.90
12708;DHT22;6418;50.824;4.718;2022-10-15T00:25:08;13.80;99.90
12708;DHT22;6418;50.824;4.718;2022-10-15T00:27:35;13.80;99.90
12708;DHT22;6418;50.824;4.718;2022-10-15T00:30:04;13.80;99.90
12708;DHT22;6418;50.824;4.718;2022-10-15T00:32:31;13.80;99.90
12708;DHT22;6418;50.824;4.718;2022-10-15T00:34:58;13.80;99.90
12708;DHT22;6418;50.824;4.718;2022-10-15T00:37:25;13.80;99.90
12708;DHT22;6418;50.824;4.718;2022-10-15T00:39:53;13.70;99.90
12708;DHT22;6418;50.824;4.718;2022-10-15T00:42:20;13.70;99.90
12708;DHT22;6418;50.824;4.718;2022-10-15T00:44:53;13.70;99.90
12708;DHT22;6418;50.824;4.718;2022-10-15T00:47:25;13.70;99.90
12708;DHT22;6418;50.824;4.718;2022-10-15T00:49:58;13.70;99.90
12708;DHT22;6418;50.824;4.718;2022-10-15T00:52:29;13.70;99.90
12708;DHT22;6418;50.824;4.718;2022-10-15T00:55:04;13.70;99.90
12708;DHT22;6418;50.824;4.718;2022-10-15T00:57:32;13.70;99.90
12708;DHT22;6418;50.824;4.718;2022-10-15T01:00:03;13.50;99.90
12708;DHT22;6418;50.824;4.718;2022-10-15T01:02:30;13.70;99.90
12708;DHT22;6418;50.824;4.718;2022-10-15T01:04:57;13.60;99.90
12708;DHT22;6418;50.824;4.718;2022-10-15T01:07:24;13.60;99.90
12708;DHT22;6418;50.824;4.718;2022-10-15T01:09:51;13.70;99.90
12708;DHT22;6418;50.824;4.718;2022-10-15T01:12:27;13.60;99.90
12708;DHT22;6418;50.824;4.718;2022-10-15T01:15:03;13.70;99.90
12708;DHT22;6418;50.824;4.718;2022-10-15T01:17:37;13.70;99.90
12708;DHT22;6418;50.824;4.718;2022-10-15T01:20:35;13.70;99.90
12708;DHT22;6418;50.824;4.718;2022-10-15T01:23:25;13.70;99.90
12708;DHT22;6418;50.824;4.718;2022-10-15T01:26:06;13.60;99.90
12708;DHT22;6418;50.824;4.718;2022-10-15T01:28:44;13.70;99.90
12708;DHT22;6418;50.824;4.718;2022-10-15T01:31:23;13.70;99.90
12708;DHT22;6418;50.824;4.718;2022-10-15T01:34:00;13.70;99.90
12708;DHT22;6418;50.824;4.718;2022-10-15T01:36:33;13.70;99.90
12708;DHT22;6418;50.824;4.718;2022-10-15T01:39:09;13.70;99.90
12708;DHT22;6418;50.824;4.718;2022-10-15T01:41:41;13.70;99.90
12708;DHT22;6418;50.824;4.718;2022-10-15T01:44:12;13.80;99.90
12708;DHT22;6418;50.824;4.718;2022-10-15T01:46:46;13.80;99.90
12708;DHT22;6418;50.824;4.718;2022-10-15T01:49:16;13.80;99.90
12708;DHT22;6418;50.824;4.718;2022-10-15T01:51:47;13.80;99.90
12708;DHT22;6418;50.824;4.718;2022-10-15T01:54:16;13.80;99.90
12708;DHT22;6418;50.824;4.718;2022-10-15T01:56:45;13.80;99.90
12708;DHT22;6418;50.824;4.718;2022-10-15T01:59:14;13.80;99.90
12708;DHT22;6418;50.824;4.718;2022-10-15T02:01:44;13.80;99.90
12708;DHT22;6418;50.824;4.718;2022-10-15T02:04:18;13.80;99.90
12708;DHT22;6418;50.824;4.718;2022-10-15T02:06:49;13.80;99.90
12708;DHT22;6418;50.824;4.718;2022-10-15T02:09:27;13.80;99.90
12708;DHT22;6418;50.824;4.718;2022-10-15T02:12:08;13.80;99.90
12708;DHT22;6418;50.824;4.718;2022-10-15T02:14:41;13.80;99.90
12708;DHT22;6418;50.824;4.718;2022-10-15T02:17:13;13.80;99.90
12708;DHT22;6418;50.824;4.718;2022-10-15T02:19:46;13.70;99.90
12708;DHT22;6418;50.824;4.718;2022-10-15T02:22:17;13.70;99.90
12708;DHT22;6418;50.824;4.718;2022-10-15T02:24:48;13.70;99.90
12708;DHT22;6418;50.824;4.718;2022-10-15T02:27:17;13.70;99.90
12708;DHT22;6418;50.824;4.718;2022-10-15T02:29:48;13.70;99.90
12708;DHT22;6418;50.824;4.718;2022-10-15T02:32:19;13.70;99.90
12708;DHT22;6418;50.824;4.718;2022-10-15T02:34:48;13.70;99.90
12708;DHT22;6418;50.824;4.718;2022-10-15T02:37:16;13.70;99.90
12708;DHT22;6418;50.824;4.718;2022-10-15T02:39:45;13.70;99.90
12708;DHT22;6418;50.824;4.718;2022-10-15T02:42:13;13.70;99.90
12708;DHT22;6418;50.824;4.718;2022-10-15T02:44:40;13.70;99.90
12708;DHT22;6418;50.824;4.718;2022-10-15T02:47:07;13.70;99.90
12708;DHT22;6418;50.824;4.718;2022-10-15T02:49:36;13.60;99.90
12708;DHT22;6418;50.824;4.718;2022-10-15T02:52:03;13.60;99.90
12708;DHT22;6418;50.824;4.718;2022-10-15T02:54:30;13.60;99.90
12708;DHT22;6418;50.824;4.718;2022-10-15T02:56:57;13.60;99.90
12708;DHT22;6418;50.824;4.718;2022-10-15T02:59:24;13.60;99.90
12708;DHT22;6418;50.824;4.718;2022-10-15T03:01:51;13.60;99.90
12708;DHT22;6418;50.824;4.718;2022-10-15T03:04:17;13.60;99.90
12708;DHT22;6418;50.824;4.718;2022-10-15T03:06:46;13.60;99.90
12708;DHT22;6418;50.824;4.718;2022-10-15T03:09:13;13.60;99.90
12708;DHT22;6418;50.824;4.718;2022-10-15T03:11:40;13.60;99.90
12708;DHT22;6418;50.824;4.718;2022-10-15T03:14:06;13.60;99.90
12708;DHT22;6418;50.824;4.718;2022-10-15T03:16:33;13.50;99.90
12708;DHT22;6418;50.824;4.718;2022-10-15T03:19:00;13.60;99.90
12708;DHT22;6418;50.824;4.718;2022-10-15T03:21:27;13.60;99.90
12708;DHT22;6418;50.824;4.718;2022-10-15T03:23:57;13.60;99.90
12708;DHT22;6418;50.824;4.718;2022-10-15T03:26:24;13.60;99.90
12708;DHT22;6418;50.824;4.718;2022-10-15T03:28:51;13.60;99.90
12708;DHT22;6418;50.824;4.718;2022-10-15T03:31:18;13.60;99.90
12708;DHT22;6418;50.824;4.718;2022-10-15T03:33:45;13.50;99.90
12708;DHT22;6418;50.824;4.718;2022-10-15T03:36:11;13.50;99.90
12708;DHT22;6418;50.824;4.718;2022-10-15T03:38:38;13.50;99.90
12708;DHT22;6418;50.824;4.718;2022-10-15T03:41:07;13.50;99.90
12708;DHT22;6418;50.824;4.718;2022-10-15T03:43:33;13.50;99.90
12708;DHT22;6418;50.824;4.718;2022-10-15T03:46:01;13.50;99.90
12708;DHT22;6418;50.824;4.718;2022-10-15T03:48:28;13.50;99.90
12708;DHT22;6418;50.824;4.718;2022-10-15T03:50:55;13.60;99.90
12708;DHT22;6418;50.824;4.718;2022-10-15T03:53:22;13.50;99.90
12708;DHT22;6418;50.824;4.718;2022-10-15T03:55:49;13.60;99.90
12708;DHT22;6418;50.824;4.718;2022-10-15T03:58:17;13.60;99.90
12708;DHT22;6418;50.824;4.718;2022-10-15T04:00:45;13.60;99.90
12708;DHT22;6418;50.824;4.718;2022-10-15T04:03:13;13.50;99.90
12708;DHT22;6418;50.824;4.718;2022-10-15T04:05:40;13.60;99.90
12708;DHT22;6418;50.824;4.718;2022-10-15T04:08:07;13.60;99.90
12708;DHT22;6418;50.824;4.718;2022-10-15T04:10:34;13.60;99.90
12708;DHT22;6418;50.824;4.718;2022-10-15T04:13:00;13.60;99.90
12708;DHT22;6418;50.824;4.718;2022-10-15T04:15:29;13.60;99.90
12708;DHT22;6418;50.824;4.718;2022-10-15T04:17:56;13.60;99.90
12708;DHT22;6418;50.824;4.718;2022-10-15T04:20:23;13.60;99.90
12708;DHT22;6418;50.824;4.718;2022-10-15T04:22:50;13.60;99.90
12708;DHT22;6418;50.824;4.718;2022-10-15T04:25:17;13.60;99.90
12708;DHT22;6418;50.824;4.718;2022-10-15T04:27:43;13.60;99.90
12708;DHT22;6418;50.824;4.718;2022-10-15T04:30:11;13.50;99.90
12708;DHT22;6418;50.824;4.718;2022-10-15T04:32:40;13.50;99.90
12708;DHT22;6418;50.824;4.718;2022-10-15T04:35:07;13.40;99.90
12708;DHT22;6418;50.824;4.718;2022-10-15T04:37:34;13.40;99.90
12708;DHT22;6418;50.824;4.718;2022-10-15T04:40:01;13.40;99.90
12708;DHT22;6418;50.824;4.718;2022-10-15T04:42:30;13.30;99.90
12708;DHT22;6418;50.824;4.718;2022-10-15T04:44:56;13.30;99.90
12708;DHT22;6418;50.824;4.718;2022-10-15T04:47:23;13.20;99.90
12708;DHT22;6418;50.824;4.718;2022-10-15T04:49:52;13.10;99.90
12708;DHT22;6418;50.824;4.718;2022-10-15T04:52:19;13.20;99.90
12708;DHT22;6418;50.824;4.718;2022-10-15T04:54:45;13.00;99.90
12708;DHT22;6418;50.824;4.718;2022-10-15T04:57:12;13.00;99.90
12708;DHT22;6418;50.824;4.718;2022-10-15T04:59:39;12.90;99.90
12708;DHT22;6418;50.824;4.718;2022-10-15T05:02:06;13.00;99.90
12708;DHT22;6418;50.824;4.718;2022-10-15T05:04:33;12.90;99.90
12708;DHT22;6418;50.824;4.718;2022-10-15T05:07:02;12.90;99.90
12708;DHT22;6418;50.824;4.718;2022-10-15T05:09:28;12.90;99.90
12708;DHT22;6418;50.824;4.718;2022-10-15T05:11:55;12.90;99.90
12708;DHT22;6418;50.824;4.718;2022-10-15T05:14:22;12.80;99.90
12708;DHT22;6418;50.824;4.718;2022-10-15T05:16:49;12.80;99.90
12708;DHT22;6418;50.824;4.718;2022-10-15T05:19:16;12.90;99.90
12708;DHT22;6418;50.824;4.718;2022-10-15T05:21:43;12.80;99.90
12708;DHT22;6418;50.824;4.718;2022-10-15T05:24:12;12.90;99.90
12708;DHT22;6418;50.824;4.718;2022-10-15T05:26:39;12.90;99.90
12708;DHT22;6418;50.824;4.718;2022-10-15T05:29:06;12.80;99.90
12708;DHT22;6418;50.824;4.718;2022-10-15T05:31:33;12.90;99.90
12708;DHT22;6418;50.824;4.718;2022-10-15T05:34:05;12.80;99.90
12708;DHT22;6418;50.824;4.718;2022-10-15T05:36:32;12.80;99.90
12708;DHT22;6418;50.824;4.718;2022-10-15T05:39:00;12.80;99.90
12708;DHT22;6418;50.824;4.718;2022-10-15T05:41:29;12.90;99.90
12708;DHT22;6418;50.824;4.718;2022-10-15T05:43:57;12.90;99.90
12708;DHT22;6418;50.824;4.718;2022-10-15T05:46:24;12.90;99.90
12708;DHT22;6418;50.824;4.718;2022-10-15T05:48:54;12.90;99.90
12708;DHT22;6418;50.824;4.718;2022-10-15T05:51:22;12.90;99.90
12708;DHT22;6418;50.824;4.718;2022-10-15T05:53:51;12.90;99.90
12708;DHT22;6418;50.824;4.718;2022-10-15T05:56:18;12.90;99.90
12708;DHT22;6418;50.824;4.718;2022-10-15T05:58:46;12.90;99.90
12708;DHT22;6418;50.824;4.718;2022-10-15T06:01:13;12.90;99.90
12708;DHT22;6418;50.824;4.718;2022-10-15T06:03:41;12.90;99.90
12708;DHT22;6418;50.824;4.718;2022-10-15T06:06:18;12.90;99.90
12708;DHT22;6418;50.824;4.718;2022-10-15T06:08:46;13.00;99.90
12708;DHT22;6418;50.824;4.718;2022-10-15T06:11:13;13.00;99.90
12708;DHT22;6418;50.824;4.718;2022-10-15T06:13:42;13.00;99.90
12708;DHT22;6418;50.824;4.718;2022-10-15T06:16:11;13.00;99.90
12708;DHT22;6418;50.824;4.718;2022-10-15T06:18:38;13.00;99.90
12708;DHT22;6418;50.824;4.718;2022-10-15T06:21:05;13.00;99.90
12708;DHT22;6418;50.824;4.718;2022-10-15T06:23:33;13.10;99.90
12708;DHT22;6418;50.824;4.718;2022-10-15T06:26:01;13.10;99.90
12708;DHT22;6418;50.824;4.718;2022-10-15T06:28:29;13.10;99.90
12708;DHT22;6418;50.824;4.718;2022-10-15T06:30:57;13.10;99.90
12708;DHT22;6418;50.824;4.718;2022-10-15T06:33:25;13.10;99.90
12708;DHT22;6418;50.824;4.718;2022-10-15T06:35:53;13.20;99.90
12708;DHT22;6418;50.824;4.718;2022-10-15T06:38:20;13.10;99.90
12708;DHT22;6418;50.824;4.718;2022-10-15T06:40:47;13.20;99.90
12708;DHT22;6418;50.824;4.718;2022-10-15T06:43:14;13.30;99.90
12708;DHT22;6418;50.824;4.718;2022-10-15T06:45:41;13.30;99.90
12708;DHT22;6418;50.824;4.718;2022-10-15T06:48:09;13.30;99.90
12708;DHT22;6418;50.824;4.718;2022-10-15T06:50:38;13.30;99.90
12708;DHT22;6418;50.824;4.718;2022-10-15T06:53:05;13.30;99.90
12708;DHT22;6418;50.824;4.718;2022-10-15T06:55:33;13.40;99.90
12708;DHT22;6418;50.824;4.718;2022-10-15T06:58:00;13.30;99.90
12708;DHT22;6418;50.824;4.718;2022-10-15T07:00:27;13.40;99.90
12708;DHT22;6418;50.824;4.718;2022-10-15T07:02:53;13.40;99.90
12708;DHT22;6418;50.824;4.718;2022-10-15T07:05:20;13.40;99.90
12708;DHT22;6418;50.824;4.718;2022-10-15T07:07:52;13.50;99.90
12708;DHT22;6418;50.824;4.718;2022-10-15T07:10:19;13.50;99.90
12708;DHT22;6418;50.824;4.718;2022-10-15T07:12:46;13.60;99.90
12708;DHT22;6418;50.824;4.718;2022-10-15T07:15:13;13.60;99.90
12708;DHT22;6418;50.824;4.718;2022-10-15T07:17:45;13.60;99.90
12708;DHT22;6418;50.824;4.718;2022-10-15T07:20:13;13.70;99.90
12708;DHT22;6418;50.824;4.718;2022-10-15T07:22:40;13.70;99.90
12708;DHT22;6418;50.824;4.718;2022-10-15T07:25:09;13.70;99.90
12708;DHT22;6418;50.824;4.718;2022-10-15T07:27:36;13.70;99.90
12708;DHT22;6418;50.824;4.718;2022-10-15T07:30:04;13.80;99.90
12708;DHT22;6418;50.824;4.718;2022-10-15T07:32:31;13.80;99.90
12708;DHT22;6418;50.824;4.718;2022-10-15T07:34:58;13.80;99.90
12708;DHT22;6418;50.824;4.718;2022-10-15T07:37:26;13.90;99.90
12708;DHT22;6418;50.824;4.718;2022-10-15T07:39:52;14.00;99.90
12708;DHT22;6418;50.824;4.718;2022-10-15T07:42:21;14.00;99.90
12708;DHT22;6418;50.824;4.718;2022-10-15T07:44:48;14.00;99.90
12708;DHT22;6418;50.824;4.718;2022-10-15T07:47:15;14.00;99.90
12708;DHT22;6418;50.824;4.718;2022-10-15T07:49:42;14.00;99.90
12708;DHT22;6418;50.824;4.718;2022-10-15T07:52:09;14.10;99.90
12708;DHT22;6418;50.824;4.718;2022-10-15T07:54:36;14.10;99.90
12708;DHT22;6418;50.824;4.718;2022-10-15T07:57:03;14.10;99.90
12708;DHT22;6418;50.824;4.718;2022-10-15T07:59:33;14.20;99.90
12708;DHT22;6418;50.824;4.718;2022-10-15T08:02:00;14.20;99.90
12708;DHT22;6418;50.824;4.718;2022-10-15T08:04:27;14.20;99.90
12708;DHT22;6418;50.824;4.718;2022-10-15T08:06:54;14.30;99.90
12708;DHT22;6418;50.824;4.718;2022-10-15T08:09:21;14.30;99.90
12708;DHT22;6418;50.824;4.718;2022-10-15T08:11:48;14.40;99.90
12708;DHT22;6418;50.824;4.718;2022-10-15T08:14:14;14.50;99.90
12708;DHT22;6418;50.824;4.718;2022-10-15T08:16:43;14.50;99.90
12708;DHT22;6418;50.824;4.718;2022-10-15T08:19:10;14.60;99.90
12708;DHT22;6418;50.824;4.718;2022-10-15T08:21:42;14.60;99.90
12708;DHT22;6418;50.824;4.718;2022-10-15T08:24:09;14.60;99.90
12708;DHT22;6418;50.824;4.718;2022-10-15T08:26:36;14.70;99.90
12708;DHT22;6418;50.824;4.718;2022-10-15T08:29:03;14.70;99.90
12708;DHT22;6418;50.824;4.718;2022-10-15T08:31:30;14.80;99.90
12708;DHT22;6418;50.824;4.718;2022-10-15T08:33:59;14.80;99.90
12708;DHT22;6418;50.824;4.718;2022-10-15T08:36:26;14.80;99.90
12708;DHT22;6418;50.824;4.718;2022-10-15T08:38:53;14.80;99.90
12708;DHT22;6418;50.824;4.718;2022-10-15T08:41:25;14.90;99.90
12708;DHT22;6418;50.824;4.718;2022-10-15T08:43:54;15.00;99.90
12708;DHT22;6418;50.824;4.718;2022-10-15T08:46:24;15.00;99.90
12708;DHT22;6418;50.824;4.718;2022-10-15T08:48:55;15.10;99.90
12708;DHT22;6418;50.824;4.718;2022-10-15T08:51:27;15.10;99.90
12708;DHT22;6418;50.824;4.718;2022-10-15T08:53:58;15.10;99.90
12708;DHT22;6418;50.824;4.718;2022-10-15T08:56:29;15.20;99.90
12708;DHT22;6418;50.824;4.718;2022-10-15T08:59:00;15.20;99.90
12708;DHT22;6418;50.824;4.718;2022-10-15T09:01:34;15.30;99.90
12708;DHT22;6418;50.824;4.718;2022-10-15T09:04:15;15.30;99.90
12708;DHT22;6418;50.824;4.718;2022-10-15T09:06:50;15.40;99.90
12708;DHT22;6418;50.824;4.718;2022-10-15T09:09:25;15.40;99.90
12708;DHT22;6418;50.824;4.718;2022-10-15T09:12:06;15.50;99.90
12708;DHT22;6418;50.824;4.718;2022-10-15T09:14:42;15.50;99.90
12708;DHT22;6418;50.824;4.718;2022-10-15T09:17:18;15.60;99.90
12708;DHT22;6418;50.824;4.718;2022-10-15T09:19:47;15.60;99.90
12708;DHT22;6418;50.824;4.718;2022-10-15T09:22:18;15.70;99.90
12708;DHT22;6418;50.824;4.718;2022-10-15T09:24:47;15.70;99.90
12708;DHT22;6418;50.824;4.718;2022-10-15T09:27:21;15.70;99.90
12708;DHT22;6418;50.824;4.718;2022-10-15T09:30:02;15.80;99.90
12708;DHT22;6418;50.824;4.718;2022-10-15T09:32:35;15.80;99.90
12708;DHT22;6418;50.824;4.718;2022-10-15T09:35:10;15.80;99.90
12708;DHT22;6418;50.824;4.718;2022-10-15T09:37:47;15.90;99.90
12708;DHT22;6418;50.824;4.718;2022-10-15T09:40:30;15.90;99.90
12708;DHT22;6418;50.824;4.718;2022-10-15T09:43:01;15.90;99.90
12708;DHT22;6418;50.824;4.718;2022-10-15T09:45:28;16.00;99.90
12708;DHT22;6418;50.824;4.718;2022-10-15T09:47:57;16.00;99.90
12708;DHT22;6418;50.824;4.718;2022-10-15T09:50:27;16.00;99.90
12708;DHT22;6418;50.824;4.718;2022-10-15T09:53:11;16.10;99.90
12708;DHT22;6418;50.824;4.718;2022-10-15T09:55:42;16.10;99.90
12708;DHT22;6418;50.824;4.718;2022-10-15T09:58:14;16.10;99.90
12708;DHT22;6418;50.824;4.718;2022-10-15T10:00:57;16.20;99.90
12708;DHT22;6418;50.824;4.718;2022-10-15T10:03:27;16.20;99.90
12708;DHT22;6418;50.824;4.718;2022-10-15T10:06:00;16.30;99.90
12708;DHT22;6418;50.824;4.718;2022-10-15T10:08:33;16.30;99.90
12708;DHT22;6418;50.824;4.718;2022-10-15T10:11:02;16.40;99.90
12708;DHT22;6418;50.824;4.718;2022-10-15T10:13:31;16.40;99.90
12708;DHT22;6418;50.824;4.718;2022-10-15T10:16:03;16.50;99.90
12708;DHT22;6418;50.824;4.718;2022-10-15T10:18:30;16.50;99.90
12708;DHT22;6418;50.824;4.718;2022-10-15T10:20:59;16.60;99.90
12708;DHT22;6418;50.824;4.718;2022-10-15T10:23:32;16.60;99.90
12708;DHT22;6418;50.824;4.718;2022-10-15T10:26:01;16.70;99.90
12708;DHT22;6418;50.824;4.718;2022-10-15T10:28:32;16.80;99.90
12708;DHT22;6418;50.824;4.718;2022-10-15T10:31:06;16.80;99.90
12708;DHT22;6418;50.824;4.718;2022-10-15T10:33:35;16.90;99.90
12708;DHT22;6418;50.824;4.718;2022-10-15T10:36:05;17.00;99.90
12708;DHT22;6418;50.824;4.718;2022-10-15T10:38:35;17.10;99.90
12708;DHT22;6418;50.824;4.718;2022-10-15T10:41:05;17.10;99.90
12708;DHT22;6418;50.824;4.718;2022-10-15T10:43:35;17.20;99.90
12708;DHT22;6418;50.824;4.718;2022-10-15T10:46:04;17.30;99.90
12708;DHT22;6418;50.824;4.718;2022-10-15T10:48:39;17.40;99.90
12708;DHT22;6418;50.824;4.718;2022-10-15T10:51:12;17.40;99.90
12708;DHT22;6418;50.824;4.718;2022-10-15T10:53:46;17.50;99.90
12708;DHT22;6418;50.824;4.718;2022-10-15T10:56:16;17.60;99.90
12708;DHT22;6418;50.824;4.718;2022-10-15T10:58:44;17.70;99.90
12708;DHT22;6418;50.824;4.718;2022-10-15T11:01:12;17.70;99.90
12708;DHT22;6418;50.824;4.718;2022-10-15T11:03:40;17.80;99.90
12708;DHT22;6418;50.824;4.718;2022-10-15T11:06:34;17.90;99.90
12708;DHT22;6418;50.824;4.718;2022-10-15T11:09:19;18.00;99.90
12708;DHT22;6418;50.824;4.718;2022-10-15T11:11:56;18.00;99.90
12708;DHT22;6418;50.824;4.718;2022-10-15T11:14:31;18.00;99.90
12708;DHT22;6418;50.824;4.718;2022-10-15T11:17:06;18.10;99.90
12708;DHT22;6418;50.824;4.718;2022-10-15T11:19:41;18.10;99.90
12708;DHT22;6418;50.824;4.718;2022-10-15T11:22:24;18.10;99.90
12708;DHT22;6418;50.824;4.718;2022-10-15T11:24:58;18.10;99.90
12708;DHT22;6418;50.824;4.718;2022-10-15T11:27:42;18.10;99.90
12708;DHT22;6418;50.824;4.718;2022-10-15T11:30:33;18.10;99.90
12708;DHT22;6418;50.824;4.718;2022-10-15T11:33:19;18.00;99.90
12708;DHT22;6418;50.824;4.718;2022-10-15T11:35:57;18.00;99.90
12708;DHT22;6418;50.824;4.718;2022-10-15T11:38:30;18.00;99.90
12708;DHT22;6418;50.824;4.718;2022-10-15T11:41:11;18.00;99.90
12708;DHT22;6418;50.824;4.718;2022-10-15T11:43:53;17.90;99.90
12708;DHT22;6418;50.824;4.718;2022-10-15T11:46:26;17.90;99.90
12708;DHT22;6418;50.824;4.718;2022-10-15T11:49:03;17.90;99.90
12708;DHT22;6418;50.824;4.718;2022-10-15T11:51:36;17.90;99.90
12708;DHT22;6418;50.824;4.718;2022-10-15T11:54:15;17.90;99.90
12708;DHT22;6418;50.824;4.718;2022-10-15T11:56:51;17.90;99.90
12708;DHT22;6418;50.824;4.718;2022-10-15T11:59:32;17.80;99.90
12708;DHT22;6418;50.824;4.718;2022-10-15T12:02:04;17.70;99.90
12708;DHT22;6418;50.824;4.718;2022-10-15T12:04:38;17.60;99.90
12708;DHT22;6418;50.824;4.718;2022-10-15T12:07:11;17.60;99.90
12708;DHT22;6418;50.824;4.718;2022-10-15T12:09:42;17.50;99.90
12708;DHT22;6418;50.824;4.718;2022-10-15T12:12:20;17.50;99.90
12708;DHT22;6418;50.824;4.718;2022-10-15T12:15:02;17.40;99.90
12708;DHT22;6418;50.824;4.718;2022-10-15T12:17:37;17.40;99.90
12708;DHT22;6418;50.824;4.718;2022-10-15T12:20:10;17.30;99.90
12708;DHT22;6418;50.824;4.718;2022-10-15T12:22:39;17.30;99.90
12708;DHT22;6418;50.824;4.718;2022-10-15T12:25:43;17.30;99.90
12708;DHT22;6418;50.824;4.718;2022-10-15T12:28:18;17.30;99.90
12708;DHT22;6418;50.824;4.718;2022-10-15T12:31:00;17.30;99.90
12708;DHT22;6418;50.824;4.718;2022-10-15T12:33:35;17.30;99.90
12708;DHT22;6418;50.824;4.718;2022-10-15T12:36:05;17.30;99.90
12708;DHT22;6418;50.824;4.718;2022-10-15T12:38:36;17.20;99.90
12708;DHT22;6418;50.824;4.718;2022-10-15T12:41:06;17.30;99.90
12708;DHT22;6418;50.824;4.718;2022-10-15T12:43:37;17.30;99.90
12708;DHT22;6418;50.824;4.718;2022-10-15T12:46:07;17.30;99.90
12708;DHT22;6418;50.824;4.718;2022-10-15T12:48:37;17.40;99.90
12708;DHT22;6418;50.824;4.718;2022-10-15T12:51:38;17.50;99.90
12708;DHT22;6418;50.824;4.718;2022-10-15T12:54:35;17.50;99.90
12708;DHT22;6418;50.824;4.718;2022-10-15T13:00:32;17.50;99.90
12708;DHT22;6418;50.824;4.718;2022-10-15T13:03:16;17.50;99.90
12708;DHT22;6418;50.824;4.718;2022-10-15T13:05:44;17.50;99.90
12708;DHT22;6418;50.824;4.718;2022-10-15T13:08:14;17.50;99.90
12708;DHT22;6418;50.824;4.718;2022-10-15T13:10:47;17.50;99.90
12708;DHT22;6418;50.824;4.718;2022-10-15T13:13:18;17.50;99.90
12708;DHT22;6418;50.824;4.718;2022-10-15T13:15:54;17.40;99.90
12708;DHT22;6418;50.824;4.718;2022-10-15T13:18:22;17.40;99.90
12708;DHT22;6418;50.824;4.718;2022-10-15T13:20:50;17.40;99.90
12708;DHT22;6418;50.824;4.718;2022-10-15T13:23:22;17.40;99.90
12708;DHT22;6418;50.824;4.718;2022-10-15T13:25:51;17.50;99.90
12708;DHT22;6418;50.824;4.718;2022-10-15T13:28:29;17.50;99.90
12708;DHT22;6418;50.824;4.718;2022-10-15T13:30:58;17.50;99.90
12708;DHT22;6418;50.824;4.718;2022-10-15T13:33:26;17.40;99.90
12708;DHT22;6418;50.824;4.718;2022-10-15T13:35:53;17.40;99.90
12708;DHT22;6418;50.824;4.718;2022-10-15T13:38:22;17.40;99.90
12708;DHT22;6418;50.824;4.718;2022-10-15T13:40:50;17.40;99.90
12708;DHT22;6418;50.824;4.718;2022-10-15T13:43:19;17.30;99.90
12708;DHT22;6418;50.824;4.718;2022-10-15T13:45:47;17.30;99.90
12708;DHT22;6418;50.824;4.718;2022-10-15T13:48:19;17.30;99.90
12708;DHT22;6418;50.824;4.718;2022-10-15T13:50:50;17.20;99.90
12708;DHT22;6418;50.824;4.718;2022-10-15T13:53:22;17.20;99.90
12708;DHT22;6418;50.824;4.718;2022-10-15T13:55:54;17.20;99.90
12708;DHT22;6418;50.824;4.718;2022-10-15T13:58:24;17.30;99.90
12708;DHT22;6418;50.824;4.718;2022-10-15T14:00:56;17.30;99.90
12708;DHT22;6418;50.824;4.718;2022-10-15T14:03:26;17.40;99.90
12708;DHT22;6418;50.824;4.718;2022-10-15T14:05:54;17.40;99.90
12708;DHT22;6418;50.824;4.718;2022-10-15T14:08:25;17.40;99.90
12708;DHT22;6418;50.824;4.718;2022-10-15T14:10:54;17.40;99.90
12708;DHT22;6418;50.824;4.718;2022-10-15T14:13:22;17.40;99.90
12708;DHT22;6418;50.824;4.718;2022-10-15T14:18:37;17.50;99.90
12708;DHT22;6418;50.824;4.718;2022-10-15T14:21:10;17.50;99.90
12708;DHT22;6418;50.824;4.718;2022-10-15T14:23:38;17.50;99.90
12708;DHT22;6418;50.824;4.718;2022-10-15T14:26:06;17.50;99.90
12708;DHT22;6418;50.824;4.718;2022-10-15T14:28:34;17.50;99.90
12708;DHT22;6418;50.824;4.718;2022-10-15T14:31:02;17.50;99.90
12708;DHT22;6418;50.824;4.718;2022-10-15T14:33:32;17.50;99.90
12708;DHT22;6418;50.824;4.718;2022-10-15T14:36:06;17.50;99.90
12708;DHT22;6418;50.824;4.718;2022-10-15T14:38:34;17.60;99.90
12708;DHT22;6418;50.824;4.718;2022-10-15T14:41:02;17.50;99.90
12708;DHT22;6418;50.824;4.718;2022-10-15T14:43:34;17.60;99.90
12708;DHT22;6418;50.824;4.718;2022-10-15T14:46:03;17.60;99.90
12708;DHT22;6418;50.824;4.718;2022-10-15T14:48:32;17.60;99.90
12708;DHT22;6418;50.824;4.718;2022-10-15T14:51:04;17.70;99.90
12708;DHT22;6418;50.824;4.718;2022-10-15T14:53:34;17.70;99.90
12708;DHT22;6418;50.824;4.718;2022-10-15T14:56:05;17.80;99.90
12708;DHT22;6418;50.824;4.718;2022-10-15T14:58:33;17.80;99.90
12708;DHT22;6418;50.824;4.718;2022-10-15T15:01:05;17.90;99.90
12708;DHT22;6418;50.824;4.718;2022-10-15T15:03:38;17.80;99.90
12708;DHT22;6418;50.824;4.718;2022-10-15T15:06:07;17.90;99.90
12708;DHT22;6418;50.824;4.718;2022-10-15T15:08:35;17.90;99.90
12708;DHT22;6418;50.824;4.718;2022-10-15T15:11:03;17.80;99.90
12708;DHT22;6418;50.824;4.718;2022-10-15T15:13:36;17.80;99.90
12708;DHT22;6418;50.824;4.718;2022-10-15T15:16:04;17.80;99.90
12708;DHT22;6418;50.824;4.718;2022-10-15T15:18:31;17.80;99.90
12708;DHT22;6418;50.824;4.718;2022-10-15T15:21:01;17.70;99.90
12708;DHT22;6418;50.824;4.718;2022-10-15T15:23:31;17.70;99.90
12708;DHT22;6418;50.824;4.718;2022-10-15T15:25:58;17.60;99.90
12708;DHT22;6418;50.824;4.718;2022-10-15T15:28:26;17.60;99.90
12708;DHT22;6418;50.824;4.718;2022-10-15T15:30:57;17.50;99.90
12708;DHT22;6418;50.824;4.718;2022-10-15T15:33:25;17.50;99.90
12708;DHT22;6418;50.824;4.718;2022-10-15T15:35:55;17.50;99.90
12708;DHT22;6418;50.824;4.718;2022-10-15T15:38:25;17.40;99.90
12708;DHT22;6418;50.824;4.718;2022-10-15T15:40:59;17.40;99.90
12708;DHT22;6418;50.824;4.718;2022-10-15T15:43:26;17.30;99.90
12708;DHT22;6418;50.824;4.718;2022-10-15T15:45:53;17.30;99.90
12708;DHT22;6418;50.824;4.718;2022-10-15T15:48:20;17.30;99.90
12708;DHT22;6418;50.824;4.718;2022-10-15T15:50:47;17.20;99.90
12708;DHT22;6418;50.824;4.718;2022-10-15T15:53:14;17.20;99.90
12708;DHT22;6418;50.824;4.718;2022-10-15T15:55:40;17.10;99.90
12708;DHT22;6418;50.824;4.718;2022-10-15T15:58:09;17.10;99.90
12708;DHT22;6418;50.824;4.718;2022-10-15T16:00:36;17.10;99.90
12708;DHT22;6418;50.824;4.718;2022-10-15T16:03:03;17.00;99.90
12708;DHT22;6418;50.824;4.718;2022-10-15T16:05:29;16.90;99.90
12708;DHT22;6418;50.824;4.718;2022-10-15T16:07:56;16.90;99.90
12708;DHT22;6418;50.824;4.718;2022-10-15T16:10:23;16.80;99.90